Nordkapp — LASQ — position and weather

sailwx.info

Track history (hours):
 
Tides and Currents Weather Stations Pressure Air Temp Water Temp Dewpoint Dewpoint Depression Visibility Wind Speed Wind Dir Waves Ship Positions

Nordkapp

Last reported at 2018-Jun-24 01:00 UTC. Time now 2018-Jun-24 01:02 UTC.
Position N 68°42' E 015°25'.

Length 124 m; draft 6 m.

Type: Passenger vessel. MMSI: 259330000.

Date/timePositionNaut miles runAvg speedWind from/ knotsBaromVisibWave heightAir tempDewpointWater temp
2018-Jun-24 01:00N 68°42' E 015°25'3 7.0
2018-Jun-24 00:30N 68°39' E 015°23'714.4
2018-Jun-24 00:00N 68°35' E 015°07'4 8.8
2018-Jun-23 23:30N 68°34' E 014°55'5 9.1
2018-Jun-23 22:59N 68°32' E 015°06'611.8
2018-Jun-23 22:30N 68°27' E 015°10'714.3
2018-Jun-23 22:00N 68°20' E 015°01'2 4.5
2018-Jun-23 21:30N 68°22' E 014°57'610.8
2018-Jun-23 21:00N 68°16' E 014°58'510.2
2018-Jun-23 20:29N 68°14' E 014°45'4 8.4
2018-Jun-23 20:00N 68°14' E 014°34'0 0.0
2018-Jun-23 19:30N 68°14' E 014°34'1 1.5
2018-Jun-23 19:00N 68°13' E 014°34'713.0
2018-Jun-23 18:29N 68°10' E 014°18'613.2
2018-Jun-23 18:00N 68°07' E 014°03'5 9.6
2018-Jun-23 17:30N 68°07' E 013°50'1 1.7
2018-Jun-23 17:00N 68°06' E 013°50'713.8
2018-Jun-23 16:30N 68°00' E 013°56'714.2
2018-Jun-23 16:00N 67°53' E 014°02'714.6
2018-Jun-23 15:30N 67°46' E 014°09'814.6
2018-Jun-23 14:59N 67°39' E 014°15'714.3
2018-Jun-23 14:30N 67°33' E 014°20'713.7
2018-Jun-23 14:00N 67°26' E 014°26'713.6
2018-Jun-23 13:30N 67°20' E 014°23'2 4.1
2018-Jun-23 12:58N 67°17' E 014°24'0 0.0
2018-Jun-23 12:28N 67°17' E 014°24'0 0.0
2018-Jun-23 11:58N 67°17' E 014°24'0 0.0
2018-Jun-23 11:28N 67°17' E 014°24'0 0.0
2018-Jun-23 10:58N 67°17' E 014°24'1 2.0
2018-Jun-23 10:30N 67°17' E 014°21'714.9
2018-Jun-23 10:00N 67°12' E 014°08'814.7
2018-Jun-23 09:30N 67°06' E 013°57'714.8
2018-Jun-23 09:00N 67°01' E 013°42'713.9
2018-Jun-23 08:30N 66°56' E 013°29'612.7
2018-Jun-23 08:01N 66°52' E 013°41'3 5.2
2018-Jun-23 07:30N 66°50' E 013°39'611.8
2018-Jun-23 07:00N 66°48' E 013°25'611.9
2018-Jun-23 06:30N 66°44' E 013°13'714.0
2018-Jun-23 06:00N 66°38' E 013°06'611.9
2018-Jun-23 05:30N 66°33' E 012°60'713.3
2018-Jun-23 05:00N 66°26' E 012°59'713.7
2018-Jun-23 04:30N 66°19' E 012°57'612.3
2018-Jun-23 04:00N 66°13' E 012°56'2 4.0
2018-Jun-23 03:29N 66°12' E 013°00'714.4
2018-Jun-23 03:00N 66°07' E 012°47'613.0
2018-Jun-23 02:30N 66°02' E 012°38'0 0.4
2018-Jun-23 02:00N 66°01' E 012°38'511.0
2018-Jun-23 01:30N 65°58' E 012°27'713.8
2018-Jun-23 01:00N 65°52' E 012°22'714.3
2018-Jun-23 00:29N 65°44' E 012°18'714.2
2018-Jun-22 23:59N 65°38' E 012°15'814.1
2018-Jun-22 23:25N 65°29' E 012°12'1 2.4
2018-Jun-22 23:00N 65°29' E 012°13'5 9.7
2018-Jun-22 22:30N 65°24' E 012°08'714.0
2018-Jun-22 22:00N 65°18' E 011°59'714.2
2018-Jun-22 21:30N 65°12' E 011°52'714.0
2018-Jun-22 21:00N 65°05' E 011°47'713.9
2018-Jun-22 20:30N 64°60' E 011°36'714.3
2018-Jun-22 20:00N 64°55' E 011°24'510.7
2018-Jun-22 19:30N 64°52' E 011°14'2 4.3
2018-Jun-22 19:00N 64°50' E 011°11'815.0
2018-Jun-22 18:30N 64°44' E 010°59'714.5
2018-Jun-22 18:00N 64°40' E 010°45'714.6
2018-Jun-22 17:30N 64°34' E 010°35'713.4
2018-Jun-22 17:00N 64°29' E 010°27'712.9
2018-Jun-22 16:30N 64°22' E 010°28'713.7
2018-Jun-22 16:00N 64°16' E 010°20'713.8
2018-Jun-22 15:30N 64°11' E 010°09'714.1
2018-Jun-22 15:00N 64°06' E 009°59'713.9
2018-Jun-22 14:30N 64°01' E 009°47'713.4
2018-Jun-22 14:00N 63°55' E 009°47'714.5
2018-Jun-22 13:30N 63°49' E 009°36'714.3
2018-Jun-22 13:01N 63°42' E 009°31'5 8.7
2018-Jun-22 12:29N 63°38' E 009°35'511.2
2018-Jun-22 12:00N 63°38' E 009°47'713.3
2018-Jun-22 11:30N 63°31' E 009°54'612.1
2018-Jun-22 11:00N 63°28' E 010°05'713.1
2018-Jun-22 10:31N 63°27' E 010°19'2 4.5
2018-Jun-22 09:59N 63°27' E 010°24'0 0.0
2018-Jun-22 09:29N 63°27' E 010°24'0 0.0
2018-Jun-22 08:59N 63°27' E 010°24'0 0.0
2018-Jun-22 08:28N 63°27' E 010°24'0 0.0
2018-Jun-22 07:59N 63°27' E 010°24'0 0.0
2018-Jun-22 07:28N 63°27' E 010°24'0 0.0
2018-Jun-22 06:58N 63°27' E 010°24'2 4.7
2018-Jun-22 06:30N 63°27' E 010°20'815.5
2018-Jun-22 06:00N 63°29' E 010°03'714.8
2018-Jun-22 05:30N 63°34' E 009°51'713.9
2018-Jun-22 05:00N 63°39' E 009°41'815.5
2018-Jun-22 04:30N 63°35' E 009°26'815.9
2018-Jun-22 04:00N 63°31' E 009°10'815.9
2018-Jun-22 03:30N 63°28' E 008°54'815.4
2018-Jun-22 03:00N 63°25' E 008°38'815.3
2018-Jun-22 02:30N 63°21' E 008°23'715.0
2018-Jun-22 02:00N 63°17' E 008°10'714.9
2018-Jun-22 01:30N 63°13' E 007°56'714.8
2018-Jun-22 01:00N 63°09' E 007°43'2 3.7
2018-Jun-22 00:30N 63°07' E 007°44'0 0.0
2018-Jun-22 00:00N 63°07' E 007°44'0 0.1
2018-Jun-21 23:30N 63°07' E 007°44'611.5
2018-Jun-21 23:00N 63°06' E 007°32'815.7
2018-Jun-21 22:30N 63°02' E 007°16'816.1
2018-Jun-21 22:00N 62°60' E 006°59'613.0
2018-Jun-21 21:30N 62°55' E 006°51'713.9
2018-Jun-21 20:59N 62°48' E 006°58'510.9
2018-Jun-21 20:30N 62°44' E 007°04'2 4.2
2018-Jun-21 19:55N 62°44' E 007°09'2 6.0
2018-Jun-21 19:30N 62°43' E 007°04'713.5
2018-Jun-21 19:00N 62°41' E 006°51'713.7
2018-Jun-21 18:30N 62°39' E 006°37'713.9
2018-Jun-21 18:00N 62°37' E 006°22'713.3
2018-Jun-21 17:30N 62°33' E 006°11'5 9.7
2018-Jun-21 17:00N 62°29' E 006°09'0 0.0
2018-Jun-21 16:29N 62°29' E 006°09'4 7.6
2018-Jun-21 16:00N 62°26' E 006°03'612.1
2018-Jun-21 15:30N 62°24' E 006°14'714.6
2018-Jun-21 15:00N 62°25' E 006°30'714.2
2018-Jun-21 14:29N 62°27' E 006°45'612.6
2018-Jun-21 14:00N 62°23' E 006°56'714.0
2018-Jun-21 13:30N 62°17' E 007°01'714.1
2018-Jun-21 13:00N 62°10' E 007°01'5 9.0
2018-Jun-21 12:29N 62°06' E 007°04'3 7.1
2018-Jun-21 12:00N 62°06' E 007°12'2 3.0
2018-Jun-21 11:30N 62°07' E 007°09'610.8
2018-Jun-21 11:00N 62°08' E 006°57'713.7
2018-Jun-21 10:30N 62°14' E 007°01'714.4
2018-Jun-21 10:00N 62°21' E 006°56'713.0
2018-Jun-21 09:29N 62°27' E 006°49'713.9
2018-Jun-21 09:00N 62°26' E 006°34'714.6
2018-Jun-21 08:30N 62°24' E 006°19'713.6
2018-Jun-21 08:00N 62°24' E 006°05'5 9.3
2018-Jun-21 07:30N 62°29' E 006°09'1 2.9
2018-Jun-21 07:00N 62°28' E 006°06'714.6
2018-Jun-21 06:30N 62°25' E 005°52'612.5
2018-Jun-21 06:00N 62°20' E 005°44'4 7.8
2018-Jun-21 05:30N 62°19' E 005°35'815.2
2018-Jun-21 05:00N 62°17' E 005°20'815.2
2018-Jun-21 04:30N 62°12' E 005°06'713.6
2018-Jun-21 03:59N 62°05' E 005°06'714.6
2018-Jun-21 03:30N 61°59' E 005°09'4 8.3
2018-Jun-21 03:00N 61°54' E 005°08'611.6
2018-Jun-21 02:30N 61°50' E 005°15'815.0
2018-Jun-21 02:00N 61°45' E 005°01'713.9
2018-Jun-21 01:30N 61°39' E 004°59'3 5.5
2018-Jun-21 00:59N 61°36' E 005°01'0 0.0
2018-Jun-21 00:30N 61°36' E 005°01'2 4.2
2018-Jun-21 00:00N 61°36' E 004°57'713.9
2018-Jun-20 23:30N 61°29' E 004°59'714.8
2018-Jun-20 23:00N 61°23' E 004°49'714.6
2018-Jun-20 22:30N 61°16' E 004°45'713.5
2018-Jun-20 21:59N 61°09' E 004°45'713.6
2018-Jun-20 21:30N 61°02' E 004°44'713.9
2018-Jun-20 21:00N 60°55' E 004°46'713.3
2018-Jun-20 20:30N 60°49' E 004°44'714.2
2018-Jun-20 20:00N 60°42' E 004°50'714.2
2018-Jun-20 19:29N 60°35' E 004°55'714.1
2018-Jun-20 19:00N 60°29' E 004°60'713.3
2018-Jun-20 18:30N 60°24' E 005°09'5 9.8
2018-Jun-20 17:59N 60°24' E 005°19'0 0.0
2018-Jun-20 17:28N 60°24' E 005°19'0 0.0
2018-Jun-20 16:58N 60°24' E 005°19'0 0.0
2018-Jun-20 16:28N 60°24' E 005°19'0 0.0
2018-Jun-20 15:58N 60°24' E 005°19'0 0.0
2018-Jun-20 15:28N 60°24' E 005°19'0 0.0
2018-Jun-20 14:58N 60°24' E 005°19'0 0.0
2018-Jun-20 14:28N 60°24' E 005°19'0 0.0
2018-Jun-20 13:58N 60°24' E 005°19'0 0.0
2018-Jun-20 13:28N 60°24' E 005°19'0 0.0
2018-Jun-20 12:58N 60°24' E 005°19'2 4.4
2018-Jun-20 12:29N 60°25' E 005°16'713.9
2018-Jun-20 12:00N 60°31' E 005°09'612.8
2018-Jun-20 11:30N 60°35' E 004°59'713.2
2018-Jun-20 11:00N 60°41' E 004°52'713.7
2018-Jun-20 10:30N 60°47' E 004°45'613.0
2018-Jun-20 10:00N 60°53' E 004°46'713.4
2018-Jun-20 09:30N 61°00' E 004°45'713.3
2018-Jun-20 09:00N 61°07' E 004°44'713.6
2018-Jun-20 08:30N 61°13' E 004°42'613.3
2018-Jun-20 08:01N 61°19' E 004°48'713.4
2018-Jun-20 07:30N 61°26' E 004°52'613.0
2018-Jun-20 07:00N 61°31' E 005°00'510.2
2018-Jun-20 06:30N 61°36' E 005°01'1 2.7
2018-Jun-20 05:59N 61°37' E 004°59'713.7
2018-Jun-20 05:30N 61°44' E 004°58'713.7
2018-Jun-20 05:00N 61°49' E 005°09'4 7.9
2018-Jun-20 04:29N 61°53' E 005°12'4 9.0
2018-Jun-20 04:00N 61°56' E 005°07'5 9.1
2018-Jun-20 03:30N 62°01' E 005°09'713.8
2018-Jun-20 03:00N 62°07' E 005°05'510.2
2018-Jun-20 02:30N 62°12' E 005°04'611.1
2018-Jun-20 02:00N 62°15' E 005°15'611.2
2018-Jun-20 01:30N 62°18' E 005°26'611.2
2018-Jun-20 01:00N 62°19' E 005°37'3 6.2
2018-Jun-20 00:29N 62°20' E 005°44'510.9
2018-Jun-20 00:00N 62°25' E 005°50'611.7
2018-Jun-19 23:30N 62°27' E 006°01'4 7.6
2018-Jun-19 23:00N 62°29' E 006°09'0 0.0
2018-Jun-19 22:30N 62°29' E 006°09'5 9.4
2018-Jun-19 22:00N 62°33' E 006°10'612.5
2018-Jun-19 21:30N 62°37' E 006°20'612.8
2018-Jun-19 21:00N 62°38' E 006°34'612.0
2018-Jun-19 20:30N 62°40' E 006°47'612.2
2018-Jun-19 20:00N 62°42' E 006°59'510.2
2018-Jun-19 19:30N 62°44' E 007°09'0 0.0
2018-Jun-19 19:00N 62°44' E 007°09'1 2.4
2018-Jun-19 18:30N 62°44' E 007°07'510.3
2018-Jun-19 18:00N 62°46' E 006°57'612.7
2018-Jun-19 17:30N 62°53' E 006°55'611.1
2018-Jun-19 16:59N 62°58' E 006°52'5 9.5
2018-Jun-19 16:30N 62°60' E 007°01'5 9.8
2018-Jun-19 16:00N 63°02' E 007°11'510.3
2018-Jun-19 15:30N 63°04' E 007°21'611.5
2018-Jun-19 15:00N 63°07' E 007°32'611.4
2018-Jun-19 14:30N 63°09' E 007°44'612.3
2018-Jun-19 14:00N 63°13' E 007°55'612.4
2018-Jun-19 13:30N 63°16' E 008°07'612.5
2018-Jun-19 12:59N 63°20' E 008°18'612.8
2018-Jun-19 12:30N 63°24' E 008°29'713.3
2018-Jun-19 12:00N 63°26' E 008°43'713.8
2018-Jun-19 11:30N 63°29' E 008°57'713.3
2018-Jun-19 10:59N 63°31' E 009°11'714.2
2018-Jun-19 10:30N 63°35' E 009°25'714.4
2018-Jun-19 10:00N 63°39' E 009°39'611.7
2018-Jun-19 09:30N 63°35' E 009°50'815.0
2018-Jun-19 09:00N 63°29' E 009°59'714.8
2018-Jun-19 08:30N 63°28' E 010°15'4 8.5
2018-Jun-19 07:59N 63°27' E 010°24'0 0.0
2018-Jun-19 07:29N 63°27' E 010°24'0 0.0
2018-Jun-19 06:59N 63°27' E 010°24'0 0.0
2018-Jun-19 06:29N 63°27' E 010°24'0 0.0
2018-Jun-19 05:59N 63°27' E 010°24'0 0.0
2018-Jun-19 05:29N 63°27' E 010°24'0 0.0
2018-Jun-19 04:59N 63°27' E 010°24'2 5.2
2018-Jun-19 04:30N 63°27' E 010°19'714.6
2018-Jun-19 04:00N 63°29' E 010°03'613.1
2018-Jun-19 03:30N 63°33' E 009°52'714.6
2018-Jun-19 03:00N 63°39' E 009°44'713.4
2018-Jun-19 02:30N 63°38' E 009°29'714.3
2018-Jun-19 02:00N 63°45' E 009°32'714.2
2018-Jun-19 01:30N 63°52' E 009°40'713.4
2018-Jun-19 01:00N 63°58' E 009°47'612.7
2018-Jun-19 00:30N 64°04' E 009°51'714.2
2018-Jun-19 00:00N 64°08' E 010°04'714.1
2018-Jun-18 23:30N 64°13' E 010°13'612.6
2018-Jun-18 23:00N 64°18' E 010°23'611.7
2018-Jun-18 22:30N 64°24' E 010°26'713.3
2018-Jun-18 22:00N 64°31' E 010°28'713.7
2018-Jun-18 21:30N 64°36' E 010°37'713.6
2018-Jun-18 21:00N 64°41' E 010°47'714.1
2018-Jun-18 20:30N 64°45' E 011°01'714.1
2018-Jun-18 20:00N 64°50' E 011°12'2 3.1
2018-Jun-18 19:28N 64°52' E 011°14'0 0.0
2018-Jun-18 18:58N 64°52' E 011°14'0 0.4
2018-Jun-18 18:30N 64°51' E 011°14'713.4
2018-Jun-18 18:00N 64°56' E 011°26'713.6
2018-Jun-18 17:31N 65°00' E 011°38'713.9
2018-Jun-18 17:01N 65°06' E 011°48'714.0
2018-Jun-18 16:31N 65°13' E 011°53'714.0
2018-Jun-18 16:00N 65°19' E 012°00'510.1
2018-Jun-18 15:30N 65°23' E 012°07'611.3
2018-Jun-18 15:00N 65°29' E 012°13'0 0.0
2018-Jun-18 14:30N 65°29' E 012°13'0 0.0
2018-Jun-18 14:00N 65°29' E 012°13'2 4.4
2018-Jun-18 13:30N 65°31' E 012°12'714.5
2018-Jun-18 13:00N 65°38' E 012°15'714.0
2018-Jun-18 12:30N 65°45' E 012°18'713.8
2018-Jun-18 12:00N 65°52' E 012°22'714.0
2018-Jun-18 11:30N 65°58' E 012°27'610.9
2018-Jun-18 10:59N 66°01' E 012°38'0 0.0
2018-Jun-18 10:29N 66°01' E 012°38'511.1
2018-Jun-18 10:00N 66°06' E 012°44'714.3
2018-Jun-18 09:30N 66°10' E 012°58'2 4.9
2018-Jun-18 09:00N 66°13' E 012°58'611.8
2018-Jun-18 08:29N 66°19' E 012°56'714.6
2018-Jun-18 08:00N 66°26' E 012°59'714.2
2018-Jun-18 07:30N 66°33' E 012°58'612.7
2018-Jun-18 07:01N 66°39' E 013°04'713.2
2018-Jun-18 06:30N 66°45' E 013°12'713.6
2018-Jun-18 06:00N 66°48' E 013°27'713.2
2018-Jun-18 05:30N 66°51' E 013°41'3 5.2
2018-Jun-18 05:00N 66°54' E 013°38'510.4
2018-Jun-18 04:30N 66°58' E 013°30'714.1
2018-Jun-18 04:00N 67°01' E 013°45'713.8
2018-Jun-18 03:30N 67°06' E 013°58'713.4
2018-Jun-18 03:00N 67°12' E 014°07'714.3
2018-Jun-18 02:31N 67°17' E 014°20'1 2.9
2018-Jun-18 02:00N 67°17' E 014°24'0 0.0
2018-Jun-18 01:30N 67°17' E 014°24'0 0.0
2018-Jun-18 01:00N 67°17' E 014°24'0 0.8
2018-Jun-18 00:30N 67°17' E 014°23'510.5
2018-Jun-18 00:00N 67°22' E 014°25'713.3
2018-Jun-17 23:30N 67°29' E 014°23'714.3
2018-Jun-17 23:00N 67°36' E 014°18'714.3
2018-Jun-17 22:30N 67°43' E 014°12'714.2
2018-Jun-17 22:01N 67°49' E 014°06'713.3
2018-Jun-17 21:30N 67°56' E 013°60'713.6
2018-Jun-17 21:00N 68°02' E 013°54'510.3
2018-Jun-17 20:30N 68°07' E 013°50'0 0.7
2018-Jun-17 19:59N 68°07' E 013°50'613.2
2018-Jun-17 19:30N 68°07' E 014°07'714.3
2018-Jun-17 19:00N 68°11' E 014°23'5 9.9
2018-Jun-17 18:30N 68°14' E 014°34'0 0.0
2018-Jun-17 18:00N 68°14' E 014°34'0 0.0
2018-Jun-17 17:30N 68°14' E 014°34'0 0.0
2018-Jun-17 16:58N 68°14' E 014°34'1 2.6
2018-Jun-17 16:30N 68°13' E 014°37'612.5
2018-Jun-17 16:00N 68°14' E 014°54'714.1
2018-Jun-17 15:29N 68°21' E 014°59'1 2.4
2018-Jun-17 15:00N 68°22' E 014°60'3 6.0
2018-Jun-17 14:30N 68°24' E 015°06'611.6
2018-Jun-17 14:00N 68°29' E 015°13'713.3
2018-Jun-17 13:30N 68°34' E 015°02'3 5.1
2018-Jun-17 13:00N 68°34' E 014°55'0 0.0
2018-Jun-17 12:30N 68°34' E 014°55'3 6.1
2018-Jun-17 12:00N 68°34' E 015°03'714.4
2018-Jun-17 11:30N 68°38' E 015°20'5 8.9
2018-Jun-17 11:00N 68°42' E 015°25'2 3.3
2018-Jun-17 10:30N 68°44' E 015°25'714.5
2018-Jun-17 10:00N 68°51' E 015°29'714.5
2018-Jun-17 09:30N 68°57' E 015°37'1 1.9
2018-Jun-17 09:00N 68°58' E 015°39'1 2.8
2018-Jun-17 08:30N 68°59' E 015°42'611.4
2018-Jun-17 08:00N 68°59' E 015°58'714.6
2018-Jun-17 07:30N 68°56' E 016°17'714.2
2018-Jun-17 07:00N 68°51' E 016°31'3 6.8
2018-Jun-17 06:30N 68°48' E 016°33'0 0.2
2018-Jun-17 06:00N 68°48' E 016°33'713.6
2018-Jun-17 05:30N 68°52' E 016°48'814.7
2018-Jun-17 04:59N 68°57' E 017°05'613.9
2018-Jun-17 04:30N 69°02' E 017°18'612.8
2018-Jun-17 04:00N 69°06' E 017°30'713.1
2018-Jun-17 03:30N 69°09' E 017°47'611.9
2018-Jun-17 03:00N 69°12' E 018°01'3 4.9
2018-Jun-17 02:29N 69°14' E 017°58'611.4
2018-Jun-17 02:00N 69°20' E 018°02'713.1
2018-Jun-17 01:30N 69°26' E 018°07'612.2
2018-Jun-17 01:00N 69°30' E 018°19'713.3
2018-Jun-17 00:29N 69°33' E 018°37'611.5
2018-Jun-17 00:00N 69°35' E 018°51'4 7.7
2018-Jun-16 23:28N 69°39' E 018°58'0 0.0
2018-Jun-16 22:58N 69°39' E 018°58'0 0.0
2018-Jun-16 22:29N 69°39' E 018°58'0 0.2
2018-Jun-16 21:59N 69°39' E 018°58'612.0
2018-Jun-16 21:30N 69°44' E 019°03'612.3
2018-Jun-16 21:00N 69°47' E 019°18'713.4
2018-Jun-16 20:30N 69°50' E 019°36'713.8
2018-Jun-16 20:00N 69°54' E 019°54'713.5
2018-Jun-16 19:30N 69°58' E 020°09'713.0
2018-Jun-16 19:00N 70°00' E 020°27'713.9
2018-Jun-16 18:29N 70°03' E 020°46'510.8
2018-Jun-16 17:59N 70°03' E 021°02'1 1.3
2018-Jun-16 17:30N 70°02' E 021°00'713.4
2018-Jun-16 17:00N 70°09' E 021°06'612.5
2018-Jun-16 16:30N 70°15' E 021°12'713.5
2018-Jun-16 16:00N 70°19' E 021°27'713.3
2018-Jun-16 15:30N 70°24' E 021°40'612.6
2018-Jun-16 15:01N 70°21' E 021°57'713.5
2018-Jun-16 14:29N 70°18' E 022°15'4 8.2
2018-Jun-16 13:59N 70°14' E 022°21'5 9.2
2018-Jun-16 13:29N 70°19' E 022°18'612.4
2018-Jun-16 13:00N 70°24' E 022°27'713.8
2018-Jun-16 12:30N 70°28' E 022°44'713.5
2018-Jun-16 12:00N 70°32' E 023°00'713.8
2018-Jun-16 11:30N 70°36' E 023°16'714.1
2018-Jun-16 11:00N 70°39' E 023°35'2 3.9
2018-Jun-16 10:30N 70°40' E 023°41'0 0.0
2018-Jun-16 10:00N 70°40' E 023°41'0 0.0
2018-Jun-16 09:30N 70°40' E 023°41'0 0.0
2018-Jun-16 09:00N 70°40' E 023°41'4 7.2
2018-Jun-16 08:30N 70°43' E 023°35'713.7
2018-Jun-16 08:00N 70°48' E 023°48'713.8
2018-Jun-16 07:30N 70°53' E 024°04'714.2
2018-Jun-16 07:00N 70°58' E 024°20'713.2
2018-Jun-16 06:29N 71°02' E 024°37'2 4.9
2018-Jun-16 06:00N 70°60' E 024°41'510.8
2018-Jun-16 05:30N 70°60' E 024°58'713.7
2018-Jun-16 04:59N 70°59' E 025°20'612.8
2018-Jun-16 04:30N 70°56' E 025°36'713.7
2018-Jun-16 04:00N 70°58' E 025°56'1 2.5
2018-Jun-16 03:30N 70°59' E 025°58'3 6.3
2018-Jun-16 02:59N 70°58' E 026°08'714.2
2018-Jun-16 02:30N 70°59' E 026°29'713.2
2018-Jun-16 02:00N 70°59' E 026°49'713.4
2018-Jun-16 01:30N 70°59' E 027°10'4 8.4
2018-Jun-16 01:00N 70°57' E 027°20'612.3
2018-Jun-16 00:30N 71°02' E 027°11'713.8
2018-Jun-16 00:00N 71°06' E 027°28'611.9
2018-Jun-15 23:30N 71°08' E 027°46'4 4.1
2018-Jun-15 22:32N 71°04' E 027°52'013.9
2018-Jun-15 22:30N 71°05' E 027°52'713.9
2018-Jun-15 22:00N 71°08' E 028°12'714.4
2018-Jun-15 21:30N 71°03' E 028°30'715.0
2018-Jun-15 21:00N 70°59' E 028°48'713.9
2018-Jun-15 20:30N 70°55' E 029°05'4 7.5
2018-Jun-15 20:00N 70°52' E 029°14'815.0
2018-Jun-15 19:30N 70°48' E 029°33'714.7
2018-Jun-15 19:01N 70°43' E 029°50'611.8
2018-Jun-15 18:30N 70°38' E 029°44'0 0.0
2018-Jun-15 18:00N 70°38' E 029°44'3 6.3
2018-Jun-15 17:30N 70°40' E 029°50'713.2
2018-Jun-15 17:00N 70°44' E 030°06'713.7
2018-Jun-15 16:30N 70°39' E 030°22'714.1
2018-Jun-15 16:00N 70°35' E 030°38'713.8
2018-Jun-15 15:30N 70°30' E 030°52'713.6
2018-Jun-15 15:01N 70°25' E 031°06'2 4.7
2018-Jun-15 14:30N 70°22' E 031°06'0 0.0
2018-Jun-15 14:00N 70°22' E 031°06'4 8.2
2018-Jun-15 13:30N 70°18' E 031°06'714.3
2018-Jun-15 12:59N 70°12' E 030°54'714.8
2018-Jun-15 12:29N 70°07' E 030°41'714.5
2018-Jun-15 12:00N 70°01' E 030°28'714.8
2018-Jun-15 11:30N 69°55' E 030°14'714.7
2018-Jun-15 11:00N 69°48' E 030°06'5 9.4
2018-Jun-15 10:30N 69°44' E 030°04'0 0.0
2018-Jun-15 09:59N 69°44' E 030°04'0 0.0
2018-Jun-15 09:29N 69°44' E 030°04'0 0.0
2018-Jun-15 08:59N 69°44' E 030°04'0 0.0
2018-Jun-15 08:29N 69°44' E 030°04'0 0.0
2018-Jun-15 07:59N 69°44' E 030°04'0 0.0
2018-Jun-15 07:29N 69°44' E 030°04'1 3.1
2018-Jun-15 07:00N 69°45' E 030°05'612.7
2018-Jun-15 06:30N 69°51' E 030°02'713.8
2018-Jun-15 06:00N 69°58' E 029°52'714.4
2018-Jun-15 05:31N 70°04' E 029°42'1 1.6
2018-Jun-15 05:00N 70°04' E 029°44'3 6.5
2018-Jun-15 04:30N 70°02' E 029°52'714.4
2018-Jun-15 03:59N 70°04' E 030°13'714.8
2018-Jun-15 03:29N 70°08' E 030°31'714.8
2018-Jun-15 03:00N 70°12' E 030°49'714.5
2018-Jun-15 02:30N 70°17' E 031°05'611.8
2018-Jun-15 01:59N 70°23' E 031°06'2 4.4
2018-Jun-15 01:30N 70°25' E 031°05'815.6
2018-Jun-15 01:00N 70°30' E 030°49'815.4
2018-Jun-15 00:30N 70°36' E 030°33'815.3
2018-Jun-15 00:00N 70°41' E 030°17'713.5
2018-Jun-14 23:29N 70°43' E 029°56'713.5
2018-Jun-14 23:00N 70°38' E 029°44'1 1.1
2018-Jun-14 22:30N 70°38' E 029°45'712.6
2018-Jun-14 21:59N 70°45' E 029°46'714.6
2018-Jun-14 21:30N 70°49' E 029°29'714.0
2018-Jun-14 21:00N 70°52' E 029°11'1 2.6
2018-Jun-14 20:30N 70°52' E 029°07'3 6.7
2018-Jun-14 20:00N 70°55' E 029°02'713.8
2018-Jun-14 19:30N 70°59' E 028°46'713.3
2018-Jun-14 19:00N 71°03' E 028°30'713.4
2018-Jun-14 18:30N 71°08' E 028°14'713.8
2018-Jun-14 18:00N 71°05' E 027°54'2 2.2
2018-Jun-14 17:14N 71°05' E 027°49'313.7
2018-Jun-14 17:00N 71°08' E 027°45'713.4
2018-Jun-14 16:30N 71°06' E 027°25'714.1
2018-Jun-14 16:00N 71°00' E 027°12'4 7.5
2018-Jun-14 15:30N 70°57' E 027°19'3 5.6
2018-Jun-14 14:59N 70°59' E 027°12'715.4
2018-Jun-14 14:30N 70°59' E 026°49'815.6
2018-Jun-14 14:00N 70°59' E 026°25'815.0
2018-Jun-14 13:30N 70°58' E 026°03'2 3.4
2018-Jun-14 13:00N 70°59' E 025°58'0 0.0
2018-Jun-14 12:30N 70°59' E 025°58'0 0.0
2018-Jun-14 12:00N 70°59' E 025°58'0 0.0
2018-Jun-14 11:30N 70°59' E 025°58'0 0.0
2018-Jun-14 11:00N 70°59' E 025°58'0 0.0
2018-Jun-14 10:30N 70°59' E 025°58'0 0.0
2018-Jun-14 10:00N 70°59' E 025°58'0 0.0
2018-Jun-14 09:30N 70°59' E 025°58'4 7.4
2018-Jun-14 09:00N 70°57' E 025°49'612.9
2018-Jun-14 08:30N 70°57' E 025°30'612.9
2018-Jun-14 08:00N 70°59' E 025°12'713.6
2018-Jun-14 07:30N 70°60' E 024°51'3 6.2
2018-Jun-14 07:00N 70°60' E 024°41'2 3.2
2018-Jun-14 06:30N 71°01' E 024°39'611.7
2018-Jun-14 05:59N 70°59' E 024°23'613.1
2018-Jun-14 05:30N 70°54' E 024°08'713.7
2018-Jun-14 05:00N 70°50' E 023°53'714.0
2018-Jun-14 04:29N 70°44' E 023°38'5 9.5
2018-Jun-14 04:00N 70°40' E 023°40'0 0.3
2018-Jun-14 03:30N 70°40' E 023°41'2 4.0
2018-Jun-14 03:00N 70°39' E 023°35'714.0
2018-Jun-14 02:30N 70°36' E 023°16'815.1
2018-Jun-14 02:00N 70°31' E 022°59'714.6
2018-Jun-14 01:30N 70°27' E 022°41'714.5
2018-Jun-14 01:00N 70°23' E 022°23'  
Track history (hours):
 
Tides and Currents Weather Stations Pressure Air Temp Water Temp Dewpoint Dewpoint Depression Visibility Wind Speed Wind Dir Waves Ship Positions

Nordkapp

Last reported at 2018-Jun-24 01:00 UTC. Time now 2018-Jun-24 01:02 UTC.
Position N 68°42' E 015°25'.

Length 124 m; draft 6 m.

Type: Passenger vessel. MMSI: 259330000.

Date/timePositionNaut miles runAvg speedWind from/ knotsBaromVisibWave heightAir tempDewpointWater temp
2018-Jun-24 01:00N 68°42' E 015°25'3 7.0
2018-Jun-24 00:30N 68°39' E 015°23'714.4
2018-Jun-24 00:00N 68°35' E 015°07'4 8.8
2018-Jun-23 23:30N 68°34' E 014°55'5 9.1
2018-Jun-23 22:59N 68°32' E 015°06'611.8
2018-Jun-23 22:30N 68°27' E 015°10'714.3
2018-Jun-23 22:00N 68°20' E 015°01'2 4.5
2018-Jun-23 21:30N 68°22' E 014°57'610.8
2018-Jun-23 21:00N 68°16' E 014°58'510.2
2018-Jun-23 20:29N 68°14' E 014°45'4 8.4
2018-Jun-23 20:00N 68°14' E 014°34'0 0.0
2018-Jun-23 19:30N 68°14' E 014°34'1 1.5
2018-Jun-23 19:00N 68°13' E 014°34'713.0
2018-Jun-23 18:29N 68°10' E 014°18'613.2
2018-Jun-23 18:00N 68°07' E 014°03'5 9.6
2018-Jun-23 17:30N 68°07' E 013°50'1 1.7
2018-Jun-23 17:00N 68°06' E 013°50'713.8
2018-Jun-23 16:30N 68°00' E 013°56'714.2
2018-Jun-23 16:00N 67°53' E 014°02'714.6
2018-Jun-23 15:30N 67°46' E 014°09'814.6
2018-Jun-23 14:59N 67°39' E 014°15'714.3
2018-Jun-23 14:30N 67°33' E 014°20'713.7
2018-Jun-23 14:00N 67°26' E 014°26'713.6
2018-Jun-23 13:30N 67°20' E 014°23'2 4.1
2018-Jun-23 12:58N 67°17' E 014°24'0 0.0
2018-Jun-23 12:28N 67°17' E 014°24'0 0.0
2018-Jun-23 11:58N 67°17' E 014°24'0 0.0
2018-Jun-23 11:28N 67°17' E 014°24'0 0.0
2018-Jun-23 10:58N 67°17' E 014°24'1 2.0
2018-Jun-23 10:30N 67°17' E 014°21'714.9
2018-Jun-23 10:00N 67°12' E 014°08'814.7
2018-Jun-23 09:30N 67°06' E 013°57'714.8
2018-Jun-23 09:00N 67°01' E 013°42'713.9
2018-Jun-23 08:30N 66°56' E 013°29'612.7
2018-Jun-23 08:01N 66°52' E 013°41'3 5.2
2018-Jun-23 07:30N 66°50' E 013°39'611.8
2018-Jun-23 07:00N 66°48' E 013°25'611.9
2018-Jun-23 06:30N 66°44' E 013°13'714.0
2018-Jun-23 06:00N 66°38' E 013°06'611.9
2018-Jun-23 05:30N 66°33' E 012°60'713.3
2018-Jun-23 05:00N 66°26' E 012°59'713.7
2018-Jun-23 04:30N 66°19' E 012°57'612.3
2018-Jun-23 04:00N 66°13' E 012°56'2 4.0
2018-Jun-23 03:29N 66°12' E 013°00'714.4
2018-Jun-23 03:00N 66°07' E 012°47'613.0
2018-Jun-23 02:30N 66°02' E 012°38'0 0.4
2018-Jun-23 02:00N 66°01' E 012°38'511.0
2018-Jun-23 01:30N 65°58' E 012°27'713.8
2018-Jun-23 01:00N 65°52' E 012°22'714.3
2018-Jun-23 00:29N 65°44' E 012°18'714.2
2018-Jun-22 23:59N 65°38' E 012°15'814.1
2018-Jun-22 23:25N 65°29' E 012°12'1 2.4
2018-Jun-22 23:00N 65°29' E 012°13'5 9.7
2018-Jun-22 22:30N 65°24' E 012°08'714.0
2018-Jun-22 22:00N 65°18' E 011°59'714.2
2018-Jun-22 21:30N 65°12' E 011°52'714.0
2018-Jun-22 21:00N 65°05' E 011°47'713.9
2018-Jun-22 20:30N 64°60' E 011°36'714.3
2018-Jun-22 20:00N 64°55' E 011°24'510.7
2018-Jun-22 19:30N 64°52' E 011°14'2 4.3
2018-Jun-22 19:00N 64°50' E 011°11'815.0
2018-Jun-22 18:30N 64°44' E 010°59'714.5
2018-Jun-22 18:00N 64°40' E 010°45'714.6
2018-Jun-22 17:30N 64°34' E 010°35'713.4
2018-Jun-22 17:00N 64°29' E 010°27'712.9
2018-Jun-22 16:30N 64°22' E 010°28'713.7
2018-Jun-22 16:00N 64°16' E 010°20'713.8
2018-Jun-22 15:30N 64°11' E 010°09'714.1
2018-Jun-22 15:00N 64°06' E 009°59'713.9
2018-Jun-22 14:30N 64°01' E 009°47'713.4
2018-Jun-22 14:00N 63°55' E 009°47'714.5
2018-Jun-22 13:30N 63°49' E 009°36'714.3
2018-Jun-22 13:01N 63°42' E 009°31'5 8.7
2018-Jun-22 12:29N 63°38' E 009°35'511.2
2018-Jun-22 12:00N 63°38' E 009°47'713.3
2018-Jun-22 11:30N 63°31' E 009°54'612.1
2018-Jun-22 11:00N 63°28' E 010°05'713.1
2018-Jun-22 10:31N 63°27' E 010°19'2 4.5
2018-Jun-22 09:59N 63°27' E 010°24'0 0.0
2018-Jun-22 09:29N 63°27' E 010°24'0 0.0
2018-Jun-22 08:59N 63°27' E 010°24'0 0.0
2018-Jun-22 08:28N 63°27' E 010°24'0 0.0
2018-Jun-22 07:59N 63°27' E 010°24'0 0.0
2018-Jun-22 07:28N 63°27' E 010°24'0 0.0
2018-Jun-22 06:58N 63°27' E 010°24'2 4.7
2018-Jun-22 06:30N 63°27' E 010°20'815.5
2018-Jun-22 06:00N 63°29' E 010°03'714.8
2018-Jun-22 05:30N 63°34' E 009°51'713.9
2018-Jun-22 05:00N 63°39' E 009°41'815.5
2018-Jun-22 04:30N 63°35' E 009°26'815.9
2018-Jun-22 04:00N 63°31' E 009°10'815.9
2018-Jun-22 03:30N 63°28' E 008°54'815.4
2018-Jun-22 03:00N 63°25' E 008°38'815.3
2018-Jun-22 02:30N 63°21' E 008°23'715.0
2018-Jun-22 02:00N 63°17' E 008°10'714.9
2018-Jun-22 01:30N 63°13' E 007°56'714.8
2018-Jun-22 01:00N 63°09' E 007°43'2 3.7
2018-Jun-22 00:30N 63°07' E 007°44'0 0.0
2018-Jun-22 00:00N 63°07' E 007°44'0 0.1
2018-Jun-21 23:30N 63°07' E 007°44'611.5
2018-Jun-21 23:00N 63°06' E 007°32'815.7
2018-Jun-21 22:30N 63°02' E 007°16'816.1
2018-Jun-21 22:00N 62°60' E 006°59'613.0
2018-Jun-21 21:30N 62°55' E 006°51'713.9
2018-Jun-21 20:59N 62°48' E 006°58'510.9
2018-Jun-21 20:30N 62°44' E 007°04'2 4.2
2018-Jun-21 19:55N 62°44' E 007°09'2 6.0
2018-Jun-21 19:30N 62°43' E 007°04'713.5
2018-Jun-21 19:00N 62°41' E 006°51'713.7
2018-Jun-21 18:30N 62°39' E 006°37'713.9
2018-Jun-21 18:00N 62°37' E 006°22'713.3
2018-Jun-21 17:30N 62°33' E 006°11'5 9.7
2018-Jun-21 17:00N 62°29' E 006°09'0 0.0
2018-Jun-21 16:29N 62°29' E 006°09'4 7.6
2018-Jun-21 16:00N 62°26' E 006°03'612.1
2018-Jun-21 15:30N 62°24' E 006°14'714.6
2018-Jun-21 15:00N 62°25' E 006°30'714.2
2018-Jun-21 14:29N 62°27' E 006°45'612.6
2018-Jun-21 14:00N 62°23' E 006°56'714.0
2018-Jun-21 13:30N 62°17' E 007°01'714.1
2018-Jun-21 13:00N 62°10' E 007°01'5 9.0
2018-Jun-21 12:29N 62°06' E 007°04'3 7.1
2018-Jun-21 12:00N 62°06' E 007°12'2 3.0
2018-Jun-21 11:30N 62°07' E 007°09'610.8
2018-Jun-21 11:00N 62°08' E 006°57'713.7
2018-Jun-21 10:30N 62°14' E 007°01'714.4
2018-Jun-21 10:00N 62°21' E 006°56'713.0
2018-Jun-21 09:29N 62°27' E 006°49'713.9
2018-Jun-21 09:00N 62°26' E 006°34'714.6
2018-Jun-21 08:30N 62°24' E 006°19'713.6
2018-Jun-21 08:00N 62°24' E 006°05'5 9.3
2018-Jun-21 07:30N 62°29' E 006°09'1 2.9
2018-Jun-21 07:00N 62°28' E 006°06'714.6
2018-Jun-21 06:30N 62°25' E 005°52'612.5
2018-Jun-21 06:00N 62°20' E 005°44'4 7.8
2018-Jun-21 05:30N 62°19' E 005°35'815.2
2018-Jun-21 05:00N 62°17' E 005°20'815.2
2018-Jun-21 04:30N 62°12' E 005°06'713.6
2018-Jun-21 03:59N 62°05' E 005°06'714.6
2018-Jun-21 03:30N 61°59' E 005°09'4 8.3
2018-Jun-21 03:00N 61°54' E 005°08'611.6
2018-Jun-21 02:30N 61°50' E 005°15'815.0
2018-Jun-21 02:00N 61°45' E 005°01'713.9
2018-Jun-21 01:30N 61°39' E 004°59'3 5.5
2018-Jun-21 00:59N 61°36' E 005°01'0 0.0
2018-Jun-21 00:30N 61°36' E 005°01'2 4.2
2018-Jun-21 00:00N 61°36' E 004°57'713.9
2018-Jun-20 23:30N 61°29' E 004°59'714.8
2018-Jun-20 23:00N 61°23' E 004°49'714.6
2018-Jun-20 22:30N 61°16' E 004°45'713.5
2018-Jun-20 21:59N 61°09' E 004°45'713.6
2018-Jun-20 21:30N 61°02' E 004°44'713.9
2018-Jun-20 21:00N 60°55' E 004°46'713.3
2018-Jun-20 20:30N 60°49' E 004°44'714.2
2018-Jun-20 20:00N 60°42' E 004°50'714.2
2018-Jun-20 19:29N 60°35' E 004°55'714.1
2018-Jun-20 19:00N 60°29' E 004°60'713.3
2018-Jun-20 18:30N 60°24' E 005°09'5 9.8
2018-Jun-20 17:59N 60°24' E 005°19'0 0.0
2018-Jun-20 17:28N 60°24' E 005°19'0 0.0
2018-Jun-20 16:58N 60°24' E 005°19'0 0.0
2018-Jun-20 16:28N 60°24' E 005°19'0 0.0
2018-Jun-20 15:58N 60°24' E 005°19'0 0.0
2018-Jun-20 15:28N 60°24' E 005°19'0 0.0
2018-Jun-20 14:58N 60°24' E 005°19'0 0.0
2018-Jun-20 14:28N 60°24' E 005°19'0 0.0
2018-Jun-20 13:58N 60°24' E 005°19'0 0.0
2018-Jun-20 13:28N 60°24' E 005°19'0 0.0
2018-Jun-20 12:58N 60°24' E 005°19'2 4.4
2018-Jun-20 12:29N 60°25' E 005°16'713.9
2018-Jun-20 12:00N 60°31' E 005°09'612.8
2018-Jun-20 11:30N 60°35' E 004°59'713.2
2018-Jun-20 11:00N 60°41' E 004°52'713.7
2018-Jun-20 10:30N 60°47' E 004°45'613.0
2018-Jun-20 10:00N 60°53' E 004°46'713.4
2018-Jun-20 09:30N 61°00' E 004°45'713.3
2018-Jun-20 09:00N 61°07' E 004°44'713.6
2018-Jun-20 08:30N 61°13' E 004°42'613.3
2018-Jun-20 08:01N 61°19' E 004°48'713.4
2018-Jun-20 07:30N 61°26' E 004°52'613.0
2018-Jun-20 07:00N 61°31' E 005°00'510.2
2018-Jun-20 06:30N 61°36' E 005°01'1 2.7
2018-Jun-20 05:59N 61°37' E 004°59'713.7
2018-Jun-20 05:30N 61°44' E 004°58'713.7
2018-Jun-20 05:00N 61°49' E 005°09'4 7.9
2018-Jun-20 04:29N 61°53' E 005°12'4 9.0
2018-Jun-20 04:00N 61°56' E 005°07'5 9.1
2018-Jun-20 03:30N 62°01' E 005°09'713.8
2018-Jun-20 03:00N 62°07' E 005°05'510.2
2018-Jun-20 02:30N 62°12' E 005°04'611.1
2018-Jun-20 02:00N 62°15' E 005°15'611.2
2018-Jun-20 01:30N 62°18' E 005°26'611.2
2018-Jun-20 01:00N 62°19' E 005°37'3 6.2
2018-Jun-20 00:29N 62°20' E 005°44'510.9
2018-Jun-20 00:00N 62°25' E 005°50'611.7
2018-Jun-19 23:30N 62°27' E 006°01'4 7.6
2018-Jun-19 23:00N 62°29' E 006°09'0 0.0
2018-Jun-19 22:30N 62°29' E 006°09'5 9.4
2018-Jun-19 22:00N 62°33' E 006°10'612.5
2018-Jun-19 21:30N 62°37' E 006°20'612.8
2018-Jun-19 21:00N 62°38' E 006°34'612.0
2018-Jun-19 20:30N 62°40' E 006°47'612.2
2018-Jun-19 20:00N 62°42' E 006°59'510.2
2018-Jun-19 19:30N 62°44' E 007°09'0 0.0
2018-Jun-19 19:00N 62°44' E 007°09'1 2.4
2018-Jun-19 18:30N 62°44' E 007°07'510.3
2018-Jun-19 18:00N 62°46' E 006°57'612.7
2018-Jun-19 17:30N 62°53' E 006°55'611.1
2018-Jun-19 16:59N 62°58' E 006°52'5 9.5
2018-Jun-19 16:30N 62°60' E 007°01'5 9.8
2018-Jun-19 16:00N 63°02' E 007°11'510.3
2018-Jun-19 15:30N 63°04' E 007°21'611.5
2018-Jun-19 15:00N 63°07' E 007°32'611.4
2018-Jun-19 14:30N 63°09' E 007°44'612.3
2018-Jun-19 14:00N 63°13' E 007°55'612.4
2018-Jun-19 13:30N 63°16' E 008°07'612.5
2018-Jun-19 12:59N 63°20' E 008°18'612.8
2018-Jun-19 12:30N 63°24' E 008°29'713.3
2018-Jun-19 12:00N 63°26' E 008°43'713.8
2018-Jun-19 11:30N 63°29' E 008°57'713.3
2018-Jun-19 10:59N 63°31' E 009°11'714.2
2018-Jun-19 10:30N 63°35' E 009°25'714.4
2018-Jun-19 10:00N 63°39' E 009°39'611.7
2018-Jun-19 09:30N 63°35' E 009°50'815.0
2018-Jun-19 09:00N 63°29' E 009°59'714.8
2018-Jun-19 08:30N 63°28' E 010°15'4 8.5
2018-Jun-19 07:59N 63°27' E 010°24'0 0.0
2018-Jun-19 07:29N 63°27' E 010°24'0 0.0
2018-Jun-19 06:59N 63°27' E 010°24'0 0.0
2018-Jun-19 06:29N 63°27' E 010°24'0 0.0
2018-Jun-19 05:59N 63°27' E 010°24'0 0.0
2018-Jun-19 05:29N 63°27' E 010°24'0 0.0
2018-Jun-19 04:59N 63°27' E 010°24'2 5.2
2018-Jun-19 04:30N 63°27' E 010°19'714.6
2018-Jun-19 04:00N 63°29' E 010°03'613.1
2018-Jun-19 03:30N 63°33' E 009°52'714.6
2018-Jun-19 03:00N 63°39' E 009°44'713.4
2018-Jun-19 02:30N 63°38' E 009°29'714.3
2018-Jun-19 02:00N 63°45' E 009°32'714.2
2018-Jun-19 01:30N 63°52' E 009°40'713.4
2018-Jun-19 01:00N 63°58' E 009°47'612.7
2018-Jun-19 00:30N 64°04' E 009°51'714.2
2018-Jun-19 00:00N 64°08' E 010°04'714.1
2018-Jun-18 23:30N 64°13' E 010°13'612.6
2018-Jun-18 23:00N 64°18' E 010°23'611.7
2018-Jun-18 22:30N 64°24' E 010°26'713.3
2018-Jun-18 22:00N 64°31' E 010°28'713.7
2018-Jun-18 21:30N 64°36' E 010°37'713.6
2018-Jun-18 21:00N 64°41' E 010°47'714.1
2018-Jun-18 20:30N 64°45' E 011°01'714.1
2018-Jun-18 20:00N 64°50' E 011°12'2 3.1
2018-Jun-18 19:28N 64°52' E 011°14'0 0.0
2018-Jun-18 18:58N 64°52' E 011°14'0 0.4
2018-Jun-18 18:30N 64°51' E 011°14'713.4
2018-Jun-18 18:00N 64°56' E 011°26'713.6
2018-Jun-18 17:31N 65°00' E 011°38'713.9
2018-Jun-18 17:01N 65°06' E 011°48'714.0
2018-Jun-18 16:31N 65°13' E 011°53'714.0
2018-Jun-18 16:00N 65°19' E 012°00'510.1
2018-Jun-18 15:30N 65°23' E 012°07'611.3
2018-Jun-18 15:00N 65°29' E 012°13'0 0.0
2018-Jun-18 14:30N 65°29' E 012°13'0 0.0
2018-Jun-18 14:00N 65°29' E 012°13'2 4.4
2018-Jun-18 13:30N 65°31' E 012°12'714.5
2018-Jun-18 13:00N 65°38' E 012°15'714.0
2018-Jun-18 12:30N 65°45' E 012°18'713.8
2018-Jun-18 12:00N 65°52' E 012°22'714.0
2018-Jun-18 11:30N 65°58' E 012°27'610.9
2018-Jun-18 10:59N 66°01' E 012°38'0 0.0
2018-Jun-18 10:29N 66°01' E 012°38'511.1
2018-Jun-18 10:00N 66°06' E 012°44'714.3
2018-Jun-18 09:30N 66°10' E 012°58'2 4.9
2018-Jun-18 09:00N 66°13' E 012°58'611.8
2018-Jun-18 08:29N 66°19' E 012°56'714.6
2018-Jun-18 08:00N 66°26' E 012°59'714.2
2018-Jun-18 07:30N 66°33' E 012°58'612.7
2018-Jun-18 07:01N 66°39' E 013°04'713.2
2018-Jun-18 06:30N 66°45' E 013°12'713.6
2018-Jun-18 06:00N 66°48' E 013°27'713.2
2018-Jun-18 05:30N 66°51' E 013°41'3 5.2
2018-Jun-18 05:00N 66°54' E 013°38'510.4
2018-Jun-18 04:30N 66°58' E 013°30'714.1
2018-Jun-18 04:00N 67°01' E 013°45'713.8
2018-Jun-18 03:30N 67°06' E 013°58'713.4
2018-Jun-18 03:00N 67°12' E 014°07'714.3
2018-Jun-18 02:31N 67°17' E 014°20'1 2.9
2018-Jun-18 02:00N 67°17' E 014°24'0 0.0
2018-Jun-18 01:30N 67°17' E 014°24'0 0.0
2018-Jun-18 01:00N 67°17' E 014°24'0 0.8
2018-Jun-18 00:30N 67°17' E 014°23'510.5
2018-Jun-18 00:00N 67°22' E 014°25'713.3
2018-Jun-17 23:30N 67°29' E 014°23'714.3
2018-Jun-17 23:00N 67°36' E 014°18'714.3
2018-Jun-17 22:30N 67°43' E 014°12'714.2
2018-Jun-17 22:01N 67°49' E 014°06'713.3
2018-Jun-17 21:30N 67°56' E 013°60'713.6
2018-Jun-17 21:00N 68°02' E 013°54'510.3
2018-Jun-17 20:30N 68°07' E 013°50'0 0.7
2018-Jun-17 19:59N 68°07' E 013°50'613.2
2018-Jun-17 19:30N 68°07' E 014°07'714.3
2018-Jun-17 19:00N 68°11' E 014°23'5 9.9
2018-Jun-17 18:30N 68°14' E 014°34'0 0.0
2018-Jun-17 18:00N 68°14' E 014°34'0 0.0
2018-Jun-17 17:30N 68°14' E 014°34'0 0.0
2018-Jun-17 16:58N 68°14' E 014°34'1 2.6
2018-Jun-17 16:30N 68°13' E 014°37'612.5
2018-Jun-17 16:00N 68°14' E 014°54'714.1
2018-Jun-17 15:29N 68°21' E 014°59'1 2.4
2018-Jun-17 15:00N 68°22' E 014°60'3 6.0
2018-Jun-17 14:30N 68°24' E 015°06'611.6
2018-Jun-17 14:00N 68°29' E 015°13'713.3
2018-Jun-17 13:30N 68°34' E 015°02'3 5.1
2018-Jun-17 13:00N 68°34' E 014°55'0 0.0
2018-Jun-17 12:30N 68°34' E 014°55'3 6.1
2018-Jun-17 12:00N 68°34' E 015°03'714.4
2018-Jun-17 11:30N 68°38' E 015°20'5 8.9
2018-Jun-17 11:00N 68°42' E 015°25'2 3.3
2018-Jun-17 10:30N 68°44' E 015°25'714.5
2018-Jun-17 10:00N 68°51' E 015°29'714.5
2018-Jun-17 09:30N 68°57' E 015°37'1 1.9
2018-Jun-17 09:00N 68°58' E 015°39'1 2.8
2018-Jun-17 08:30N 68°59' E 015°42'611.4
2018-Jun-17 08:00N 68°59' E 015°58'714.6
2018-Jun-17 07:30N 68°56' E 016°17'714.2
2018-Jun-17 07:00N 68°51' E 016°31'3 6.8
2018-Jun-17 06:30N 68°48' E 016°33'0 0.2
2018-Jun-17 06:00N 68°48' E 016°33'713.6
2018-Jun-17 05:30N 68°52' E 016°48'814.7
2018-Jun-17 04:59N 68°57' E 017°05'613.9
2018-Jun-17 04:30N 69°02' E 017°18'612.8
2018-Jun-17 04:00N 69°06' E 017°30'713.1
2018-Jun-17 03:30N 69°09' E 017°47'611.9
2018-Jun-17 03:00N 69°12' E 018°01'3 4.9
2018-Jun-17 02:29N 69°14' E 017°58'611.4
2018-Jun-17 02:00N 69°20' E 018°02'713.1
2018-Jun-17 01:30N 69°26' E 018°07'612.2
2018-Jun-17 01:00N 69°30' E 018°19'713.3
2018-Jun-17 00:29N 69°33' E 018°37'611.5
2018-Jun-17 00:00N 69°35' E 018°51'4 7.7
2018-Jun-16 23:28N 69°39' E 018°58'0 0.0
2018-Jun-16 22:58N 69°39' E 018°58'0 0.0
2018-Jun-16 22:29N 69°39' E 018°58'0 0.2
2018-Jun-16 21:59N 69°39' E 018°58'612.0
2018-Jun-16 21:30N 69°44' E 019°03'612.3
2018-Jun-16 21:00N 69°47' E 019°18'713.4
2018-Jun-16 20:30N 69°50' E 019°36'713.8
2018-Jun-16 20:00N 69°54' E 019°54'713.5
2018-Jun-16 19:30N 69°58' E 020°09'713.0
2018-Jun-16 19:00N 70°00' E 020°27'713.9
2018-Jun-16 18:29N 70°03' E 020°46'510.8
2018-Jun-16 17:59N 70°03' E 021°02'1 1.3
2018-Jun-16 17:30N 70°02' E 021°00'713.4
2018-Jun-16 17:00N 70°09' E 021°06'612.5
2018-Jun-16 16:30N 70°15' E 021°12'713.5
2018-Jun-16 16:00N 70°19' E 021°27'713.3
2018-Jun-16 15:30N 70°24' E 021°40'612.6
2018-Jun-16 15:01N 70°21' E 021°57'713.5
2018-Jun-16 14:29N 70°18' E 022°15'4 8.2
2018-Jun-16 13:59N 70°14' E 022°21'5 9.2
2018-Jun-16 13:29N 70°19' E 022°18'612.4
2018-Jun-16 13:00N 70°24' E 022°27'713.8
2018-Jun-16 12:30N 70°28' E 022°44'713.5
2018-Jun-16 12:00N 70°32' E 023°00'713.8
2018-Jun-16 11:30N 70°36' E 023°16'714.1
2018-Jun-16 11:00N 70°39' E 023°35'2 3.9
2018-Jun-16 10:30N 70°40' E 023°41'0 0.0
2018-Jun-16 10:00N 70°40' E 023°41'0 0.0
2018-Jun-16 09:30N 70°40' E 023°41'0 0.0
2018-Jun-16 09:00N 70°40' E 023°41'4 7.2
2018-Jun-16 08:30N 70°43' E 023°35'713.7
2018-Jun-16 08:00N 70°48' E 023°48'713.8
2018-Jun-16 07:30N 70°53' E 024°04'714.2
2018-Jun-16 07:00N 70°58' E 024°20'713.2
2018-Jun-16 06:29N 71°02' E 024°37'2 4.9
2018-Jun-16 06:00N 70°60' E 024°41'510.8
2018-Jun-16 05:30N 70°60' E 024°58'713.7
2018-Jun-16 04:59N 70°59' E 025°20'612.8
2018-Jun-16 04:30N 70°56' E 025°36'713.7
2018-Jun-16 04:00N 70°58' E 025°56'1 2.5
2018-Jun-16 03:30N 70°59' E 025°58'3 6.3
2018-Jun-16 02:59N 70°58' E 026°08'714.2
2018-Jun-16 02:30N 70°59' E 026°29'713.2
2018-Jun-16 02:00N 70°59' E 026°49'713.4
2018-Jun-16 01:30N 70°59' E 027°10'4 8.4
2018-Jun-16 01:00N 70°57' E 027°20'612.3
2018-Jun-16 00:30N 71°02' E 027°11'713.8
2018-Jun-16 00:00N 71°06' E 027°28'611.9
2018-Jun-15 23:30N 71°08' E 027°46'4 4.1
2018-Jun-15 22:32N 71°04' E 027°52'013.9
2018-Jun-15 22:30N 71°05' E 027°52'713.9
2018-Jun-15 22:00N 71°08' E 028°12'714.4
2018-Jun-15 21:30N 71°03' E 028°30'715.0
2018-Jun-15 21:00N 70°59' E 028°48'713.9
2018-Jun-15 20:30N 70°55' E 029°05'4 7.5
2018-Jun-15 20:00N 70°52' E 029°14'815.0
2018-Jun-15 19:30N 70°48' E 029°33'714.7
2018-Jun-15 19:01N 70°43' E 029°50'611.8
2018-Jun-15 18:30N 70°38' E 029°44'0 0.0
2018-Jun-15 18:00N 70°38' E 029°44'3 6.3
2018-Jun-15 17:30N 70°40' E 029°50'713.2
2018-Jun-15 17:00N 70°44' E 030°06'713.7
2018-Jun-15 16:30N 70°39' E 030°22'714.1
2018-Jun-15 16:00N 70°35' E 030°38'713.8
2018-Jun-15 15:30N 70°30' E 030°52'713.6
2018-Jun-15 15:01N 70°25' E 031°06'2 4.7
2018-Jun-15 14:30N 70°22' E 031°06'0 0.0
2018-Jun-15 14:00N 70°22' E 031°06'4 8.2
2018-Jun-15 13:30N 70°18' E 031°06'714.3
2018-Jun-15 12:59N 70°12' E 030°54'714.8
2018-Jun-15 12:29N 70°07' E 030°41'714.5
2018-Jun-15 12:00N 70°01' E 030°28'714.8
2018-Jun-15 11:30N 69°55' E 030°14'714.7
2018-Jun-15 11:00N 69°48' E 030°06'5 9.4
2018-Jun-15 10:30N 69°44' E 030°04'0 0.0
2018-Jun-15 09:59N 69°44' E 030°04'0 0.0
2018-Jun-15 09:29N 69°44' E 030°04'0 0.0
2018-Jun-15 08:59N 69°44' E 030°04'0 0.0
2018-Jun-15 08:29N 69°44' E 030°04'0 0.0
2018-Jun-15 07:59N 69°44' E 030°04'0 0.0
2018-Jun-15 07:29N 69°44' E 030°04'1 3.1
2018-Jun-15 07:00N 69°45' E 030°05'612.7
2018-Jun-15 06:30N 69°51' E 030°02'713.8
2018-Jun-15 06:00N 69°58' E 029°52'714.4
2018-Jun-15 05:31N 70°04' E 029°42'1 1.6
2018-Jun-15 05:00N 70°04' E 029°44'3 6.5
2018-Jun-15 04:30N 70°02' E 029°52'714.4
2018-Jun-15 03:59N 70°04' E 030°13'714.8
2018-Jun-15 03:29N 70°08' E 030°31'714.8
2018-Jun-15 03:00N 70°12' E 030°49'714.5
2018-Jun-15 02:30N 70°17' E 031°05'611.8
2018-Jun-15 01:59N 70°23' E 031°06'2 4.4
2018-Jun-15 01:30N 70°25' E 031°05'815.6
2018-Jun-15 01:00N 70°30' E 030°49'815.4
2018-Jun-15 00:30N 70°36' E 030°33'815.3
2018-Jun-15 00:00N 70°41' E 030°17'713.5
2018-Jun-14 23:29N 70°43' E 029°56'713.5
2018-Jun-14 23:00N 70°38' E 029°44'1 1.1
2018-Jun-14 22:30N 70°38' E 029°45'712.6
2018-Jun-14 21:59N 70°45' E 029°46'714.6
2018-Jun-14 21:30N 70°49' E 029°29'714.0
2018-Jun-14 21:00N 70°52' E 029°11'1 2.6
2018-Jun-14 20:30N 70°52' E 029°07'3 6.7
2018-Jun-14 20:00N 70°55' E 029°02'713.8
2018-Jun-14 19:30N 70°59' E 028°46'713.3
2018-Jun-14 19:00N 71°03' E 028°30'713.4
2018-Jun-14 18:30N 71°08' E 028°14'713.8
2018-Jun-14 18:00N 71°05' E 027°54'2 2.2
2018-Jun-14 17:14N 71°05' E 027°49'313.7
2018-Jun-14 17:00N 71°08' E 027°45'713.4
2018-Jun-14 16:30N 71°06' E 027°25'714.1
2018-Jun-14 16:00N 71°00' E 027°12'4 7.5
2018-Jun-14 15:30N 70°57' E 027°19'3 5.6
2018-Jun-14 14:59N 70°59' E 027°12'715.4
2018-Jun-14 14:30N 70°59' E 026°49'815.6
2018-Jun-14 14:00N 70°59' E 026°25'815.0
2018-Jun-14 13:30N 70°58' E 026°03'2 3.4
2018-Jun-14 13:00N 70°59' E 025°58'0 0.0
2018-Jun-14 12:30N 70°59' E 025°58'0 0.0
2018-Jun-14 12:00N 70°59' E 025°58'0 0.0
2018-Jun-14 11:30N 70°59' E 025°58'0 0.0
2018-Jun-14 11:00N 70°59' E 025°58'0 0.0
2018-Jun-14 10:30N 70°59' E 025°58'0 0.0
2018-Jun-14 10:00N 70°59' E 025°58'0 0.0
2018-Jun-14 09:30N 70°59' E 025°58'4 7.4
2018-Jun-14 09:00N 70°57' E 025°49'612.9
2018-Jun-14 08:30N 70°57' E 025°30'612.9
2018-Jun-14 08:00N 70°59' E 025°12'713.6
2018-Jun-14 07:30N 70°60' E 024°51'3 6.2
2018-Jun-14 07:00N 70°60' E 024°41'2 3.2
2018-Jun-14 06:30N 71°01' E 024°39'611.7
2018-Jun-14 05:59N 70°59' E 024°23'613.1
2018-Jun-14 05:30N 70°54' E 024°08'713.7
2018-Jun-14 05:00N 70°50' E 023°53'714.0
2018-Jun-14 04:29N 70°44' E 023°38'5 9.5
2018-Jun-14 04:00N 70°40' E 023°40'0 0.3
2018-Jun-14 03:30N 70°40' E 023°41'2 4.0
2018-Jun-14 03:00N 70°39' E 023°35'714.0
2018-Jun-14 02:30N 70°36' E 023°16'815.1
2018-Jun-14 02:00N 70°31' E 022°59'714.6
2018-Jun-14 01:30N 70°27' E 022°41'714.5
2018-Jun-14 01:00N 70°23' E 022°23'  

Dump ship's entire track history